Current Conditions
Misty
Conditions



Pressure
1014.9 (hPa) - 29.97 (inHG)
Visibility

3.5 (km) - 2.2 (miles)
   Temperature
3  °C
Temperature
3  °C
Dewpoint
100  %
 Humidity
   Wind Speed
4.5  m/s
10  mph
16  km/h
9  kts
   Wind Direction
N
45°
E
90°
135°
S
180°
225°
W
270°
315°
 180°

Due South
   Airport Data
ESGG
Gothenburg-Landvetter Airport
Metar :ESGG 281950Z 18009KT 3500 BR OVC003 03/03 Q1015
Wed 28th February 20:50 pm
   Raw Metar Info
Raw METAR is the most common format in the world for the transmission of observational weather data. It is highly standardized through the International Civil Aviation Organization (ICAO), which allows it to be understood throughout most of the world.
   API Info
Data Provided by
https://www.checkwx.com/weather/ESGG

Aviation Weather providing METAR, TAF, AIRMET, SIGMET and OUTLOOK Weather Reports
   © Info
CSS/SVG/PHP scripts were developed by weather34.com for use in the weather34 template © 2015-2024

Guide Info provided by Metar-Wikipedia